Time;durP1;ratioP1;P1;durP2;ratioP2;P2;SDS_P1;SDS_P2;PMS_P1;PMS_P2;Temp;Humidity;BMP_temperature;BMP_pressure;BME280_temperature;BME280_humidity;BME280_pressure;Samples;Min_cycle;Max_cycle;Signal;HPM_P1;HPM_P2
2022/08/16 00:01:38;;;;;;;15.15;7.78;;;20.30;71.10;;;;;;4122809;28;20118;-88
2022/08/16 00:04:05;;;;;;;15.40;7.60;;;20.30;70.90;;;;;;4107203;28;20042;-89
2022/08/16 00:06:06;;;;;;;10.13;6.65;;;20.30;71.00;;;;;;4096835;28;20484;-87
2022/08/16 00:08:07;;;;;;;12.32;7.03;;;20.20;70.90;;;;;;4124225;28;20033;-87
2022/08/16 00:10:13;;;;;;;18.50;7.55;;;20.20;70.80;;;;;;4117503;28;20034;-87
2022/08/16 00:12:19;;;;;;;11.45;7.55;;;20.20;70.70;;;;;;4122374;28;20110;-88
2022/08/16 00:14:24;;;;;;;16.77;8.18;;;20.20;70.70;;;;;;4120613;28;20030;-89
2022/08/16 00:16:28;;;;;;;13.45;7.50;;;20.10;70.50;;;;;;4125029;28;20042;-88
2022/08/16 00:18:29;;;;;;;14.00;7.53;;;20.10;70.40;;;;;;4109976;28;20065;-88
2022/08/16 00:20:31;;;;;;;10.48;7.10;;;20.10;70.60;;;;;;4108020;28;20034;-88
2022/08/16 00:22:35;;;;;;;15.48;7.55;;;20.00;70.70;;;;;;4125539;28;20034;-89
2022/08/16 00:24:36;;;;;;;14.35;8.25;;;20.00;70.90;;;;;;4122675;28;20034;-88
2022/08/16 00:26:37;;;;;;;11.70;6.78;;;20.00;71.00;;;;;;4107708;28;20302;-89
2022/08/16 00:28:37;;;;;;;13.90;7.80;;;20.00;71.10;;;;;;4107885;28;20617;-88
2022/08/16 00:30:38;;;;;;;15.65;7.63;;;20.00;71.30;;;;;;4107392;28;20022;-88
2022/08/16 00:32:44;;;;;;;15.75;7.47;;;20.00;71.30;;;;;;4111536;28;20035;-88
2022/08/16 00:34:47;;;;;;;11.43;7.40;;;19.90;71.30;;;;;;4125168;28;20121;-89
2022/08/16 00:36:49;;;;;;;13.95;8.00;;;19.90;71.30;;;;;;4128451;28;20113;-89
2022/08/16 00:38:49;;;;;;;15.23;7.70;;;19.90;71.20;;;;;;4125582;28;20029;-89
2022/08/16 00:40:52;;;;;;;24.10;8.82;;;19.90;71.20;;;;;;4127726;28;20044;-88
2022/08/16 00:42:53;;;;;;;15.27;8.38;;;19.90;71.20;;;;;;4111416;28;20113;-88
2022/08/16 00:44:57;;;;;;;16.75;8.05;;;19.90;71.30;;;;;;4092835;28;20684;-89
2022/08/16 00:47:04;;;;;;;14.45;8.10;;;19.80;71.40;;;;;;4123220;28;20049;-87
2022/08/16 00:49:10;;;;;;;15.48;8.13;;;19.80;71.50;;;;;;4123602;28;20030;-87
2022/08/16 00:51:14;;;;;;;17.90;8.40;;;19.80;71.50;;;;;;4119182;28;20030;-89
2022/08/16 00:53:17;;;;;;;13.68;7.20;;;19.80;71.60;;;;;;4116116;28;20030;-88
2022/08/16 00:55:19;;;;;;;;;;;19.70;71.60;;;;;;4093967;28;20444;-87
2022/08/16 00:57:20;;;;;;;11.68;7.13;;;19.70;72.40;;;;;;4127198;28;19953;-88
2022/08/16 00:59:38;;;;;;;14.80;7.72;;;19.70;71.50;;;;;;4126787;28;20089;-87
2022/08/16 01:01:39;;;;;;;18.48;8.38;;;19.60;71.90;;;;;;4125973;28;20030;-86
2022/08/16 01:03:45;;;;;;;15.27;8.50;;;19.70;72.70;;;;;;4109455;28;20509;-87
2022/08/16 01:05:46;;;;;;;16.73;8.68;;;19.70;72.20;;;;;;4120398;28;20030;-87
2022/08/16 01:07:54;;;;;;;17.10;9.00;;;19.70;72.40;;;;;;4106311;28;20046;-88
2022/08/16 01:09:54;;;;;;;16.98;8.65;;;19.70;72.50;;;;;;4120813;28;20553;-88
2022/08/16 01:11:59;;;;;;;14.68;7.82;;;19.60;72.50;;;;;;4127653;28;20030;-87
2022/08/16 01:14:14;;;;;;;14.90;7.82;;;19.60;72.70;;;;;;4111868;28;20034;-88
2022/08/16 01:16:24;;;;;;;16.08;8.40;;;19.60;72.80;;;;;;4111021;28;20441;-88
2022/08/16 01:18:30;;;;;;;11.07;7.25;;;19.60;73.10;;;;;;4127402;28;20076;-88
2022/08/16 01:20:40;;;;;;;12.65;7.82;;;19.60;73.10;;;;;;4109162;28;20035;-87
2022/08/16 01:22:51;;;;;;;13.40;7.78;;;19.50;73.20;;;;;;4126757;28;20089;-88
2022/08/16 01:24:57;;;;;;;12.35;7.60;;;19.50;73.30;;;;;;4111276;28;20254;-87
2022/08/16 01:27:22;;;;;;;13.95;8.18;;;19.50;73.20;;;;;;4124851;28;20034;-87
2022/08/16 01:29:43;;;;;;;15.02;8.52;;;19.50;73.30;;;;;;4129330;28;20030;-88
2022/08/16 01:31:49;;;;;;;21.40;7.05;;;19.50;73.70;;;;;;4116690;28;20030;-89
2022/08/16 01:33:56;;;;;;;15.57;7.50;;;19.40;73.30;;;;;;4127206;28;20108;-88
2022/08/16 01:36:05;;;;;;;13.75;7.18;;;19.40;73.40;;;;;;4127895;28;20038;-89
2022/08/16 01:38:21;;;;;;;14.50;7.38;;;19.40;73.50;;;;;;4118319;28;20027;-88
2022/08/16 01:40:29;;;;;;;16.33;7.65;;;19.40;73.60;;;;;;4126564;28;20033;-88
2022/08/16 01:42:29;;;;;;;10.52;7.35;;;19.40;73.50;;;;;;4107179;28;20031;-88
2022/08/16 01:44:30;;;;;;;14.07;7.25;;;19.40;73.40;;;;;;4120924;28;20049;-88
2022/08/16 01:46:44;;;;;;;14.70;6.82;;;19.40;73.30;;;;;;4123035;28;20030;-86
2022/08/16 01:48:45;;;;;;;15.82;7.82;;;19.30;73.30;;;;;;4120483;28;20540;-88
2022/08/16 01:50:50;;;;;;;12.98;7.65;;;19.30;73.30;;;;;;4109036;28;20055;-87
2022/08/16 01:52:51;;;;;;;18.42;7.20;;;19.30;73.20;;;;;;4110778;28;20041;-88
2022/08/16 01:54:54;;;;;;;15.18;7.40;;;19.30;73.20;;;;;;4120877;28;20035;-87
2022/08/16 01:56:59;;;;;;;12.43;7.15;;;19.30;73.20;;;;;;4123140;28;20026;-87
2022/08/16 01:59:03;;;;;;;14.35;7.47;;;19.20;73.00;;;;;;4121470;28;20088;-88
2022/08/16 02:01:04;;;;;;;16.10;6.50;;;19.20;72.90;;;;;;4106199;28;20114;-88
2022/08/16 02:03:08;;;;;;;16.98;7.55;;;19.20;72.90;;;;;;4120485;28;20125;-87
2022/08/16 02:05:10;;;;;;;18.00;7.07;;;19.20;72.90;;;;;;4124533;28;20772;-87
2022/08/16 02:07:12;;;;;;;15.02;7.35;;;19.20;72.90;;;;;;4107352;28;20093;-88
2022/08/16 02:09:14;;;;;;;20.42;7.43;;;19.20;72.80;;;;;;4125576;28;20049;-89
2022/08/16 02:11:18;;;;;;;12.15;7.68;;;19.00;72.70;;;;;;4126618;28;20053;-88
2022/08/16 02:13:22;;;;;;;14.98;8.05;;;19.10;72.90;;;;;;4118705;28;20088;-89
2022/08/16 02:15:30;;;;;;;15.98;7.50;;;19.10;72.90;;;;;;4104477;28;20861;-88
2022/08/16 02:17:42;;;;;;;16.38;8.35;;;19.20;73.00;;;;;;4114479;28;20166;-89
2022/08/16 02:19:47;;;;;;;18.17;7.75;;;19.00;72.80;;;;;;4121898;28;20038;-88
2022/08/16 02:21:54;;;;;;;12.88;7.40;;;19.10;72.90;;;;;;4087598;28;20043;-88
2022/08/16 02:23:55;;;;;;;13.88;7.38;;;19.00;72.80;;;;;;4120583;28;20038;-88
2022/08/16 02:25:58;;;;;;;13.07;7.93;;;19.00;72.90;;;;;;4123504;28;20053;-87
2022/08/16 02:27:59;;;;;;;16.90;7.30;;;19.00;73.00;;;;;;4093886;28;20111;-88
2022/08/16 02:30:00;;;;;;;12.80;7.03;;;19.00;73.10;;;;;;4104695;28;20431;-89
2022/08/16 02:32:03;;;;;;;13.23;7.03;;;19.00;73.10;;;;;;4102476;28;20117;-88
2022/08/16 02:34:05;;;;;;;13.60;7.20;;;19.00;73.10;;;;;;4106953;28;20018;-89
2022/08/16 02:36:06;;;;;;;11.48;6.70;;;18.90;73.00;;;;;;4123696;28;20046;-88
2022/08/16 02:38:07;;;;;;;14.00;7.95;;;18.90;72.90;;;;;;4105637;28;20552;-88
2022/08/16 02:40:09;;;;;;;10.23;6.53;;;18.90;72.90;;;;;;4125447;28;20029;-89
2022/08/16 02:42:09;;;;;;;11.68;6.68;;;18.90;72.80;;;;;;4109460;28;20125;-88
2022/08/16 02:44:12;;;;;;;13.93;7.32;;;18.90;72.90;;;;;;4103632;28;20031;-89
2022/08/16 02:46:13;;;;;;;12.00;7.80;;;18.80;72.70;;;;;;4089758;28;20043;-88
2022/08/16 02:48:13;;;;;;;13.63;6.82;;;18.80;72.80;;;;;;4115340;28;20061;-88
2022/08/16 02:50:14;;;;;;;14.02;6.82;;;18.80;72.60;;;;;;4106288;28;20062;-88
2022/08/16 02:52:15;;;;;;;11.93;7.28;;;18.70;72.50;;;;;;4119363;28;20029;-88
2022/08/16 02:54:16;;;;;;;11.63;6.35;;;18.80;72.60;;;;;;4119331;28;20444;-88
2022/08/16 02:56:17;;;;;;;15.02;7.28;;;18.70;72.60;;;;;;4120362;28;20081;-88
2022/08/16 02:58:19;;;;;;;15.55;6.82;;;18.70;72.70;;;;;;4118562;28;20034;-88
2022/08/16 03:00:20;;;;;;;14.45;8.07;;;18.70;72.70;;;;;;4105522;28;20027;-87
2022/08/16 03:02:21;;;;;;;12.25;7.25;;;18.70;72.80;;;;;;4121991;28;20084;-88
2022/08/16 03:04:22;;;;;;;13.20;7.18;;;18.70;72.80;;;;;;4102536;28;20582;-88
2022/08/16 03:06:23;;;;;;;13.90;6.85;;;18.60;72.80;;;;;;4127056;28;20026;-87
2022/08/16 03:08:24;;;;;;;19.02;8.73;;;18.60;72.90;;;;;;4105063;28;20023;-87
2022/08/16 03:10:24;;;;;;;10.85;6.85;;;18.60;72.90;;;;;;4123351;28;20305;-87
2022/08/16 03:12:25;;;;;;;12.48;6.97;;;18.60;72.90;;;;;;4124383;28;20502;-88
2022/08/16 03:14:26;;;;;;;11.93;7.47;;;18.60;73.00;;;;;;4121045;28;20026;-87
2022/08/16 03:16:31;;;;;;;13.45;7.70;;;18.60;73.10;;;;;;4104243;28;20436;-87
2022/08/16 03:18:47;;;;;;;10.57;7.40;;;18.60;73.10;;;;;;4122973;28;20492;-88
2022/08/16 03:20:50;;;;;;;16.25;7.20;;;18.60;73.20;;;;;;4120346;28;20021;-87
2022/08/16 03:22:54;;;;;;;15.13;7.30;;;18.60;73.20;;;;;;4127192;28;20049;-87
2022/08/16 03:25:00;;;;;;;13.27;7.97;;;18.60;73.30;;;;;;4117559;28;20014;-87
2022/08/16 03:27:09;;;;;;;15.07;7.88;;;18.50;73.30;;;;;;4103858;28;20022;-87
2022/08/16 03:29:10;;;;;;;15.30;8.50;;;18.50;73.30;;;;;;4105925;28;20050;-87
2022/08/16 03:31:14;;;;;;;10.85;6.65;;;18.50;73.40;;;;;;4091357;28;20111;-86
2022/08/16 03:33:18;;;;;;;13.40;7.53;;;18.60;73.60;;;;;;4106380;28;20023;-86
2022/08/16 03:35:29;;;;;;;18.13;8.18;;;18.50;73.60;;;;;;4122247;28;20026;-86
2022/08/16 03:37:42;;;;;;;17.00;8.18;;;18.60;73.80;;;;;;4105166;28;20043;-87
2022/08/16 03:39:45;;;;;;;13.18;6.93;;;18.60;73.90;;;;;;4105770;28;20042;-87
2022/08/16 03:41:46;;;;;;;19.15;8.60;;;18.60;74.00;;;;;;4117811;28;20128;-87
2022/08/16 03:43:50;;;;;;;12.05;8.13;;;18.60;74.10;;;;;;4106983;28;20065;-88
2022/08/16 03:45:51;;;;;;;;;;;18.60;75.00;;;;;;4120221;28;20053;-88
2022/08/16 03:47:52;;;;;;;15.65;7.10;;;18.60;74.80;;;;;;4127157;28;19918;-88
2022/08/16 03:49:52;;;;;;;15.00;8.13;;;18.60;74.20;;;;;;4128273;28;20154;-88
2022/08/16 03:51:53;;;;;;;14.70;8.07;;;18.60;74.40;;;;;;4127115;28;20027;-87
2022/08/16 03:53:57;;;;;;;20.00;8.25;;;18.60;74.60;;;;;;4113315;28;20133;-88
2022/08/16 03:55:59;;;;;;;;;;;18.60;74.80;;;;;;4113059;28;20151;-87
2022/08/16 03:58:00;;;;;;;21.48;8.90;;;18.70;75.60;;;;;;4125622;28;19914;-87
2022/08/16 04:00:16;;;;;;;17.33;8.40;;;18.70;74.80;;;;;;4127585;28;20061;-88
2022/08/16 04:02:21;;;;;;;22.40;9.75;;;18.70;75.20;;;;;;4127444;28;20081;-87
2022/08/16 04:04:24;;;;;;;16.27;9.98;;;18.70;75.30;;;;;;4115592;28;20057;-85
2022/08/16 04:06:28;;;;;;;21.55;9.85;;;18.70;75.60;;;;;;4111698;28;20134;-85
2022/08/16 04:08:38;;;;;;;17.60;8.88;;;18.80;75.90;;;;;;4125231;28;20492;-87
2022/08/16 04:10:40;;;;;;;19.75;8.80;;;18.80;76.10;;;;;;4110419;28;20331;-85
2022/08/16 04:12:42;;;;;;;17.00;9.50;;;18.70;76.20;;;;;;4105611;28;20548;-86
2022/08/16 04:14:44;;;;;;;16.27;8.73;;;18.80;76.50;;;;;;4102593;28;20689;-87
2022/08/16 04:16:45;;;;;;;18.52;8.68;;;18.80;76.60;;;;;;4108720;28;20041;-87
2022/08/16 04:18:46;;;;;;;16.75;10.27;;;18.90;76.70;;;;;;4126268;28;20501;-86
2022/08/16 04:20:47;;;;;;;16.65;9.77;;;18.90;76.70;;;;;;4127516;28;20022;-87
2022/08/16 04:22:47;;;;;;;19.55;9.63;;;18.90;76.80;;;;;;4113992;28;20037;-86
2022/08/16 04:24:48;;;;;;;19.35;10.35;;;18.90;77.00;;;;;;4128889;28;20077;-86
2022/08/16 04:26:49;;;;;;;20.77;11.05;;;18.90;76.70;;;;;;4120180;28;20026;-87
2022/08/16 04:28:50;;;;;;;19.65;9.80;;;18.90;76.70;;;;;;4129002;28;20052;-87
2022/08/16 04:30:51;;;;;;;23.23;9.93;;;18.90;76.70;;;;;;4107491;28;20027;-86
2022/08/16 04:32:51;;;;;;;20.13;10.18;;;18.90;76.60;;;;;;4110893;28;20041;-86
2022/08/16 04:34:52;;;;;;;16.42;9.60;;;18.90;76.70;;;;;;4125341;28;20042;-86
2022/08/16 04:36:53;;;;;;;18.30;9.57;;;18.90;76.80;;;;;;4127398;28;20030;-86
2022/08/16 04:38:54;;;;;;;16.48;9.65;;;18.90;76.70;;;;;;4124336;28;20044;-86
2022/08/16 04:40:55;;;;;;;18.63;9.88;;;18.90;76.90;;;;;;4107176;28;20030;-87
2022/08/16 04:42:59;;;;;;;14.50;8.20;;;18.90;76.90;;;;;;4123962;28;20090;-86
2022/08/16 04:45:00;;;;;;;25.08;10.52;;;18.90;76.90;;;;;;4110613;28;20038;-85
2022/08/16 04:47:01;;;;;;;21.23;10.02;;;18.90;76.90;;;;;;4110558;28;20050;-85
2022/08/16 04:49:01;;;;;;;18.20;9.70;;;18.90;76.90;;;;;;4111700;28;20064;-85
2022/08/16 04:51:03;;;;;;;16.00;9.13;;;18.90;76.70;;;;;;4125833;28;20046;-85
2022/08/16 04:53:04;;;;;;;14.38;8.80;;;18.90;76.50;;;;;;4125737;28;20555;-85
2022/08/16 04:55:08;;;;;;;14.70;8.50;;;18.90;76.50;;;;;;4128719;28;20490;-86
2022/08/16 04:57:09;;;;;;;19.77;10.90;;;18.90;76.60;;;;;;4127902;28;20497;-85
2022/08/16 04:59:10;;;;;;;24.65;12.35;;;18.90;76.70;;;;;;4109065;28;20035;-85
2022/08/16 05:01:11;;;;;;;20.77;11.38;;;18.90;77.10;;;;;;4127566;28;20073;-85
2022/08/16 05:03:12;;;;;;;26.80;13.98;;;18.90;77.40;;;;;;4098060;28;20050;-85
2022/08/16 05:05:13;;;;;;;29.38;15.73;;;18.90;77.50;;;;;;4130060;28;20136;-85
2022/08/16 05:07:14;;;;;;;39.83;17.45;;;18.90;77.80;;;;;;4110189;28;20023;-84
2022/08/16 05:09:14;;;;;;;29.67;17.83;;;19.00;78.10;;;;;;4111051;28;20111;-86
2022/08/16 05:11:16;;;;;;;35.58;16.92;;;19.00;78.30;;;;;;4122817;28;20057;-89
2022/08/16 05:13:17;;;;;;;33.97;16.67;;;19.00;78.40;;;;;;4126872;28;20053;-88
2022/08/16 05:15:18;;;;;;;29.15;16.40;;;19.00;78.60;;;;;;4097464;28;20027;-88
2022/08/16 05:17:19;;;;;;;27.55;16.23;;;19.10;78.70;;;;;;4129608;28;20461;-89
2022/08/16 05:19:20;;;;;;;26.98;16.65;;;19.10;78.80;;;;;;4100141;28;20019;-89
2022/08/16 05:21:21;;;;;;;25.17;16.17;;;19.10;78.80;;;;;;4113625;28;20031;-89
2022/08/16 05:23:22;;;;;;;28.92;17.80;;;19.20;78.80;;;;;;4112299;28;20519;-88
2022/08/16 05:25:22;;;;;;;27.52;16.83;;;19.20;78.80;;;;;;4124933;28;20033;-88
2022/08/16 05:27:23;;;;;;;24.33;16.25;;;19.20;78.80;;;;;;4110243;28;20061;-88
2022/08/16 05:29:24;;;;;;;23.75;15.98;;;19.20;78.70;;;;;;4127396;28;20132;-89
2022/08/16 05:31:26;;;;;;;23.13;15.20;;;19.20;78.70;;;;;;4128657;28;20481;-89
2022/08/16 05:33:27;;;;;;;29.52;17.55;;;19.30;78.70;;;;;;4113997;28;20018;-86
2022/08/16 05:35:28;;;;;;;25.83;16.30;;;19.30;78.70;;;;;;4123073;28;20534;-88
2022/08/16 05:37:29;;;;;;;23.90;15.27;;;19.30;78.70;;;;;;4095434;28;20434;-87
2022/08/16 05:39:29;;;;;;;22.60;15.70;;;19.20;78.60;;;;;;4130896;28;20041;-88
2022/08/16 05:41:30;;;;;;;25.30;16.75;;;19.30;78.70;;;;;;4101753;28;20035;-89
2022/08/16 05:43:31;;;;;;;24.48;16.58;;;19.30;78.70;;;;;;4119550;28;20590;-88
2022/08/16 05:45:32;;;;;;;25.27;16.73;;;19.30;78.60;;;;;;4134219;28;20130;-89
2022/08/16 05:47:33;;;;;;;24.05;17.30;;;19.30;78.50;;;;;;4115325;28;20027;-89
2022/08/16 05:49:34;;;;;;;26.20;17.55;;;19.40;78.50;;;;;;4113208;28;20030;-89
2022/08/16 05:51:35;;;;;;;26.40;17.33;;;19.40;78.50;;;;;;4116264;28;20133;-89
2022/08/16 05:53:36;;;;;;;29.08;18.77;;;19.30;78.40;;;;;;4127376;28;20435;-89
2022/08/16 05:55:37;;;;;;;26.45;19.30;;;19.40;78.50;;;;;;4133197;28;20061;-89
2022/08/16 05:57:38;;;;;;;28.67;18.33;;;19.40;78.40;;;;;;4112689;28;20031;-89
2022/08/16 05:59:38;;;;;;;30.05;18.92;;;19.40;78.50;;;;;;4116012;28;20463;-90
2022/08/16 06:01:40;;;;;;;25.10;17.52;;;19.40;78.60;;;;;;4118174;28;20038;-89
2022/08/16 06:03:41;;;;;;;28.52;18.95;;;19.40;78.60;;;;;;4095411;28;20035;-89
2022/08/16 06:05:42;;;;;;;29.73;19.02;;;19.40;78.80;;;;;;4115151;28;20053;-88
2022/08/16 06:07:43;;;;;;;29.92;19.02;;;19.40;78.80;;;;;;4095305;28;20126;-90
2022/08/16 06:09:44;;;;;;;29.98;19.27;;;19.40;78.90;;;;;;4116802;28;20034;-89
2022/08/16 06:11:45;;;;;;;31.25;20.30;;;19.40;78.90;;;;;;4118475;28;20464;-89
2022/08/16 06:13:46;;;;;;;26.83;18.55;;;19.40;79.00;;;;;;4130316;28;20110;-89
2022/08/16 06:15:50;;;;;;;29.65;19.25;;;19.40;79.00;;;;;;4126170;28;20041;-90
2022/08/16 06:17:51;;;;;;;31.85;20.02;;;19.50;79.10;;;;;;4110590;28;20046;-89
2022/08/16 06:19:52;;;;;;;31.55;20.52;;;19.50;79.10;;;;;;4130942;28;20066;-89
2022/08/16 06:21:53;;;;;;;35.17;22.42;;;19.50;79.10;;;;;;4112471;28;20077;-88
2022/08/16 06:23:54;;;;;;;36.60;22.80;;;19.50;79.10;;;;;;4111802;28;20030;-89
2022/08/16 06:25:54;;;;;;;34.90;21.60;;;19.50;79.20;;;;;;4122147;28;20109;-90
2022/08/16 06:27:55;;;;;;;38.00;22.55;;;19.50;79.20;;;;;;4096572;28;20066;-89
2022/08/16 06:29:56;;;;;;;40.83;24.88;;;19.60;79.40;;;;;;4094956;28;20038;-89
2022/08/16 06:31:56;;;;;;;43.90;24.67;;;19.60;79.50;;;;;;4115405;28;20118;-89
2022/08/16 06:33:57;;;;;;;37.05;22.90;;;19.60;79.50;;;;;;4114439;28;20056;-88
2022/08/16 06:35:58;;;;;;;45.65;24.65;;;19.70;79.50;;;;;;4130233;28;20034;-89
2022/08/16 06:37:59;;;;;;;45.92;24.55;;;19.70;79.60;;;;;;4110223;28;20027;-89
2022/08/16 06:40:00;;;;;;;39.35;24.23;;;19.70;79.80;;;;;;4129385;28;20042;-89
2022/08/16 06:42:01;;;;;;;40.60;23.30;;;19.70;79.80;;;;;;4111046;28;20023;-88
2022/08/16 06:44:02;;;;;;;49.40;24.10;;;19.70;79.90;;;;;;4129793;28;20030;-90
2022/08/16 06:46:06;;;;;;;46.25;24.92;;;19.70;80.00;;;;;;4102435;28;20035;-88
2022/08/16 06:48:09;;;;;;;48.80;24.55;;;19.70;80.30;;;;;;4102985;28;20024;-89
2022/08/16 06:50:10;;;;;;;35.97;23.02;;;19.80;80.50;;;;;;4135439;28;20503;-88
2022/08/16 06:52:12;;;;;;;37.30;22.42;;;19.80;80.50;;;;;;4134354;28;20064;-89
2022/08/16 06:54:12;;;;;;;37.40;22.42;;;19.80;80.60;;;;;;4131031;28;20094;-89
2022/08/16 06:56:13;;;;;;;39.25;22.58;;;19.90;80.70;;;;;;4109573;28;20027;-89
2022/08/16 06:58:15;;;;;;;36.55;22.65;;;19.90;81.40;;;;;;4124257;28;20033;-90
2022/08/16 07:00:16;;;;;;;37.50;20.65;;;19.90;80.80;;;;;;4098772;28;20034;-89
2022/08/16 07:02:17;;;;;;;37.67;22.42;;;19.90;80.80;;;;;;4110546;28;20046;-90
2022/08/16 07:04:19;;;;;;;33.10;21.20;;;20.00;81.00;;;;;;4111454;28;20039;-89
2022/08/16 07:06:21;;;;;;;33.08;21.15;;;20.00;81.00;;;;;;4092941;28;20035;-89
2022/08/16 07:08:24;;;;;;;29.60;19.63;;;20.00;81.10;;;;;;4122709;28;20049;-89
2022/08/16 07:10:26;;;;;;;;;;;20.10;81.20;;;;;;4109008;28;20081;-89
2022/08/16 07:12:27;;;;;;;29.63;17.92;;;20.10;81.60;;;;;;4111664;28;19957;-88
2022/08/16 07:14:27;;;;;;;33.15;19.45;;;20.20;81.00;;;;;;4106666;28;20027;-90
2022/08/16 07:16:28;;;;;;;27.38;17.75;;;20.20;81.10;;;;;;4125175;28;20040;-89
2022/08/16 07:18:29;;;;;;;29.15;18.15;;;20.20;81.10;;;;;;4132301;28;20033;-89
2022/08/16 07:20:30;;;;;;;30.17;18.38;;;20.30;81.20;;;;;;4108961;28;20050;-89
2022/08/16 07:22:30;;;;;;;40.05;18.02;;;20.30;81.20;;;;;;4108475;28;20026;-89
2022/08/16 07:24:31;;;;;;;32.72;18.25;;;20.40;81.20;;;;;;4109125;28;20027;-90
2022/08/16 07:26:32;;;;;;;28.73;16.48;;;20.40;81.10;;;;;;4117292;28;20043;-89
2022/08/16 07:28:34;;;;;;;23.25;16.17;;;20.50;81.10;;;;;;4111980;28;20031;-89
2022/08/16 07:30:35;;;;;;;18.55;13.77;;;20.50;80.90;;;;;;4125493;28;20508;-90
2022/08/16 07:32:39;;;;;;;22.33;14.02;;;20.50;80.70;;;;;;4111475;28;20030;-92
2022/08/16 07:34:39;;;;;;;22.48;13.60;;;20.60;80.70;;;;;;4128118;28;20065;-90
2022/08/16 07:36:40;;;;;;;29.38;14.18;;;20.60;80.60;;;;;;4111411;28;20034;-90
2022/08/16 07:38:42;;;;;;;22.02;12.48;;;20.70;80.40;;;;;;4114650;28;20035;-90
2022/08/16 07:40:43;;;;;;;21.38;11.85;;;20.70;80.20;;;;;;4099740;28;20058;-91
2022/08/16 07:42:43;;;;;;;18.35;11.75;;;20.70;80.00;;;;;;4114140;28;20035;-89
2022/08/16 07:44:47;;;;;;;17.40;10.80;;;20.80;79.80;;;;;;4119434;28;20031;-91
2022/08/16 07:46:48;;;;;;;22.02;11.13;;;20.90;79.80;;;;;;4117686;28;20054;-89
2022/08/16 07:48:49;;;;;;;20.40;11.55;;;20.90;79.50;;;;;;4113092;28;20551;-89
2022/08/16 07:50:50;;;;;;;21.05;10.27;;;20.90;79.30;;;;;;4093392;28;20383;-89
2022/08/16 07:52:50;;;;;;;16.42;9.93;;;20.90;79.10;;;;;;4124390;28;20547;-88
2022/08/16 07:55:12;;;;;;;13.45;8.98;;;21.00;79.10;;;;;;4115166;28;20034;-89
2022/08/16 07:57:13;;;;;;;15.02;8.07;;;21.10;79.00;;;;;;4137810;28;20032;-90
2022/08/16 07:59:14;;;;;;;18.02;8.20;;;21.10;78.90;;;;;;4114818;28;20249;-90
2022/08/16 08:01:15;;;;;;;16.42;7.70;;;21.10;78.70;;;;;;4119276;28;20105;-90
2022/08/16 08:03:18;;;;;;;11.73;6.70;;;21.20;78.50;;;;;;4122096;28;20431;-90
2022/08/16 08:05:19;;;;;;;;;;;21.30;78.30;;;;;;4106975;28;20074;-89
2022/08/16 08:07:20;;;;;;;15.05;6.70;;;21.30;77.80;;;;;;4130270;28;19949;-90
2022/08/16 08:09:21;;;;;;;11.13;6.50;;;21.40;77.80;;;;;;4113146;28;20029;-91
2022/08/16 08:11:23;;;;;;;12.85;6.30;;;21.50;77.50;;;;;;4115961;28;20092;-90
2022/08/16 08:13:24;;;;;;;8.65;6.10;;;21.50;77.00;;;;;;4114799;28;20154;-89
2022/08/16 08:15:26;;;;;;;13.02;5.60;;;21.50;76.40;;;;;;4111571;28;20035;-90
2022/08/16 08:17:32;;;;;;;14.25;5.10;;;21.60;76.20;;;;;;4104949;28;20029;-90
2022/08/16 08:19:33;;;;;;;7.97;4.72;;;21.70;75.50;;;;;;4095728;28;20126;-88
2022/08/16 08:21:34;;;;;;;11.45;5.03;;;21.70;75.30;;;;;;4120264;28;20436;-90
2022/08/16 08:23:38;;;;;;;10.68;5.40;;;21.80;75.00;;;;;;4107428;28;20501;-89
2022/08/16 08:25:40;;;;;;;9.25;4.60;;;21.80;74.20;;;;;;4097042;28;20026;-89
2022/08/16 08:27:42;;;;;;;11.73;4.38;;;21.90;74.10;;;;;;4109092;28;20448;-90
2022/08/16 08:29:42;;;;;;;11.50;5.63;;;21.90;73.40;;;;;;4094337;28;20601;-89
2022/08/16 08:31:43;;;;;;;9.90;4.90;;;22.00;73.20;;;;;;4110486;28;20031;-90
2022/08/16 08:33:44;;;;;;;13.18;5.53;;;22.10;72.80;;;;;;4114726;28;20031;-90
2022/08/16 08:35:45;;;;;;;11.88;5.03;;;22.10;72.20;;;;;;4129905;28;20036;-90
2022/08/16 08:37:46;;;;;;;9.55;4.72;;;22.30;72.10;;;;;;4134960;28;20027;-89
2022/08/16 08:39:47;;;;;;;14.13;4.72;;;22.30;71.90;;;;;;4130544;28;20034;-90
2022/08/16 08:41:48;;;;;;;10.20;5.07;;;22.50;71.60;;;;;;4116923;28;20073;-91
2022/08/16 08:43:51;;;;;;;5.22;3.97;;;22.60;70.60;;;;;;4128843;28;20031;-89
2022/08/16 08:45:54;;;;;;;9.23;4.15;;;22.70;69.70;;;;;;4113285;28;20528;-91
2022/08/16 08:47:55;;;;;;;13.57;4.18;;;22.80;68.50;;;;;;4114655;28;20027;-91
2022/08/16 08:49:57;;;;;;;9.10;4.30;;;22.90;68.00;;;;;;4135944;28;20113;-91
2022/08/16 08:51:58;;;;;;;4.57;3.65;;;23.00;67.50;;;;;;4114745;28;20038;-88
2022/08/16 08:53:59;;;;;;;5.38;3.85;;;23.10;67.10;;;;;;4132041;28;20066;-90
2022/08/16 08:56:03;;;;;;;10.77;4.10;;;23.20;66.00;;;;;;4115435;28;20033;-92
2022/08/16 08:58:04;;;;;;;10.57;4.10;;;23.40;65.60;;;;;;4117959;28;20039;-91
2022/08/16 09:00:06;;;;;;;5.93;3.75;;;23.50;65.30;;;;;;4114367;28;20086;-90
2022/08/16 09:02:08;;;;;;;9.30;3.90;;;23.50;64.50;;;;;;4117301;28;20082;-90
2022/08/16 09:04:10;;;;;;;8.20;3.85;;;23.70;64.10;;;;;;4127490;28;20073;-92
2022/08/16 09:06:10;;;;;;;7.25;3.83;;;23.80;63.70;;;;;;4107867;28;20068;-91
2022/08/16 09:08:11;;;;;;;6.28;3.30;;;23.80;62.80;;;;;;4117871;28;20026;-91
2022/08/16 09:10:13;;;;;;;7.13;3.70;;;23.90;62.40;;;;;;4124752;28;20154;-92
2022/08/16 09:12:16;;;;;;;13.18;4.63;;;24.00;62.30;;;;;;4111548;28;20026;-92
2022/08/16 09:14:17;;;;;;;5.68;3.65;;;24.00;61.50;;;;;;4096736;28;20032;-92
2022/08/16 09:16:19;;;;;;;8.27;3.78;;;24.10;61.40;;;;;;4107202;28;20053;-91
2022/08/16 09:18:21;;;;;;;8.50;3.65;;;24.20;60.90;;;;;;4117112;28;20035;-90
2022/08/16 09:20:26;;;;;;;7.63;3.65;;;24.20;60.60;;;;;;4103865;28;20028;-90
2022/08/16 09:22:27;;;;;;;6.43;3.70;;;24.30;60.50;;;;;;4093505;28;20238;-92
2022/08/16 09:24:28;;;;;;;8.38;3.70;;;24.30;60.50;;;;;;4098932;28;20027;-91
2022/08/16 09:26:29;;;;;;;8.25;3.63;;;24.40;59.90;;;;;;4094733;28;20027;-92
2022/08/16 09:28:30;;;;;;;11.40;4.03;;;24.40;60.40;;;;;;4111240;28;20124;-90
2022/08/16 09:30:33;;;;;;;10.07;3.70;;;24.50;60.40;;;;;;4126966;28;20023;-89
2022/08/16 09:32:35;;;;;;;6.85;3.53;;;24.60;60.10;;;;;;4126593;28;20022;-89
2022/08/16 09:34:37;;;;;;;13.45;4.15;;;24.70;60.00;;;;;;4094258;28;20033;-90
2022/08/16 09:36:38;;;;;;;5.93;3.63;;;24.80;59.60;;;;;;4129846;28;20440;-89
2022/08/16 09:38:39;;;;;;;8.75;3.72;;;24.90;59.40;;;;;;4113781;28;20496;-92
2022/08/16 09:40:42;;;;;;;6.30;3.78;;;25.00;59.00;;;;;;4114285;28;20042;-91
2022/08/16 09:42:43;;;;;;;5.32;3.05;;;25.00;58.60;;;;;;4118283;28;20083;-89
2022/08/16 09:44:44;;;;;;;8.90;3.53;;;25.10;58.00;;;;;;4114571;28;20910;-91
2022/08/16 09:46:45;;;;;;;8.70;3.50;;;25.20;58.00;;;;;;4109206;28;20027;-91
2022/08/16 09:48:46;;;;;;;6.00;3.20;;;25.30;57.50;;;;;;4113716;28;20019;-90
2022/08/16 09:50:47;;;;;;;7.68;3.50;;;25.30;56.80;;;;;;4107684;28;20030;-90
2022/08/16 09:52:50;;;;;;;8.35;3.00;;;25.30;56.50;;;;;;4107585;28;20117;-89
2022/08/16 09:54:52;;;;;;;6.53;3.60;;;25.40;55.90;;;;;;4128780;28;20030;-92
2022/08/16 09:56:53;;;;;;;5.97;3.63;;;25.40;55.70;;;;;;4112973;28;20119;-92
2022/08/16 09:58:54;;;;;;;14.05;3.55;;;25.50;56.10;;;;;;4103082;28;20051;-88
2022/08/16 10:00:55;;;;;;;13.05;3.70;;;25.50;55.70;;;;;;4106406;28;20034;-91
2022/08/16 10:02:57;;;;;;;7.50;3.25;;;25.60;54.90;;;;;;4130284;28;20030;-89
2022/08/16 10:05:15;;;;;;;7.20;3.30;;;25.50;54.60;;;;;;4095597;28;20028;-88
2022/08/16 10:07:25;;;;;;;9.90;3.47;;;25.60;54.60;;;;;;4111589;28;20121;-88
2022/08/16 10:09:32;;;;;;;6.55;3.42;;;25.70;54.20;;;;;;4109691;28;20110;-89
2022/08/16 10:13:58;;;;;;;7.70;4.20;;;25.80;54.80;;;;;;4130946;23;20163;-88
2022/08/16 10:21:19;;;;;;;13.18;3.60;;;26.00;54.60;;;;;;4063336;29;20039;-90
2022/08/16 10:23:39;;;;;;;6.68;3.58;;;26.10;53.90;;;;;;4064092;29;20399;-90
2022/08/16 10:26:12;;;;;;;13.37;4.03;;;26.10;52.00;;;;;;4048338;29;20048;-90
2022/08/16 10:28:45;;;;;;;5.68;2.72;;;26.30;52.40;;;;;;4046302;29;20036;-88
2022/08/16 10:30:48;;;;;;;;;;;26.30;52.70;;;;;;4033120;29;20029;-88
2022/08/16 10:33:27;;;;;;;;;;;;;;;;;;;;;
2022/08/16 10:35:29;;;;;;;12.23;4.00;;;26.50;51.60;;;;;;4047875;29;20037;-89
2022/08/16 10:37:59;;;;;;;12.00;3.33;;;26.50;51.80;;;;;;4042639;29;20135;-89
2022/08/16 10:40:07;;;;;;;9.25;4.15;;;26.60;51.40;;;;;;4014612;29;20044;-89
2022/08/16 10:42:16;;;;;;;7.25;3.85;;;26.50;51.60;;;;;;4045528;29;20029;-88